sensor_id;sensor_type;location;lat;lon;timestamp;temperature;humidity
7512;DHT22;9999;48.780;9.146;2022-08-25T00:01:38;21.50;99.90
7512;DHT22;9999;48.780;9.146;2022-08-25T00:04:07;21.60;99.90
7512;DHT22;9999;48.780;9.146;2022-08-25T00:06:35;21.60;99.90
7512;DHT22;9999;48.780;9.146;2022-08-25T00:09:03;21.60;99.90
7512;DHT22;9999;48.780;9.146;2022-08-25T00:11:32;21.40;99.90
7512;DHT22;9999;48.780;9.146;2022-08-25T00:14:02;21.40;99.90
7512;DHT22;9999;48.780;9.146;2022-08-25T00:16:30;21.50;99.90
7512;DHT22;9999;48.780;9.146;2022-08-25T00:19:00;21.40;99.90
7512;DHT22;9999;48.780;9.146;2022-08-25T00:21:28;21.40;99.90
7512;DHT22;9999;48.780;9.146;2022-08-25T00:23:56;21.40;99.90
7512;DHT22;9999;48.780;9.146;2022-08-25T00:26:23;21.30;99.90
7512;DHT22;9999;48.780;9.146;2022-08-25T00:28:51;21.30;99.90
7512;DHT22;9999;48.780;9.146;2022-08-25T00:31:19;21.20;99.90
7512;DHT22;9999;48.780;9.146;2022-08-25T00:33:48;21.20;99.90
7512;DHT22;9999;48.780;9.146;2022-08-25T00:36:18;21.20;99.90
7512;DHT22;9999;48.780;9.146;2022-08-25T00:38:46;21.20;99.90
7512;DHT22;9999;48.780;9.146;2022-08-25T00:41:16;21.20;99.90
7512;DHT22;9999;48.780;9.146;2022-08-25T00:43:48;21.30;99.90
7512;DHT22;9999;48.780;9.146;2022-08-25T00:46:18;21.30;99.90
7512;DHT22;9999;48.780;9.146;2022-08-25T00:48:50;21.20;99.90
7512;DHT22;9999;48.780;9.146;2022-08-25T00:51:29;21.20;99.90
7512;DHT22;9999;48.780;9.146;2022-08-25T00:53:58;21.10;99.90
7512;DHT22;9999;48.780;9.146;2022-08-25T00:56:26;21.10;99.90
7512;DHT22;9999;48.780;9.146;2022-08-25T00:58:54;21.10;99.90
7512;DHT22;9999;48.780;9.146;2022-08-25T01:01:21;21.00;99.90
7512;DHT22;9999;48.780;9.146;2022-08-25T01:03:48;21.10;99.90
7512;DHT22;9999;48.780;9.146;2022-08-25T01:06:15;21.00;99.90
7512;DHT22;9999;48.780;9.146;2022-08-25T01:08:44;21.00;99.90
7512;DHT22;9999;48.780;9.146;2022-08-25T01:11:11;21.00;99.90
7512;DHT22;9999;48.780;9.146;2022-08-25T01:13:41;20.90;99.90
7512;DHT22;9999;48.780;9.146;2022-08-25T01:16:10;20.90;99.90
7512;DHT22;9999;48.780;9.146;2022-08-25T01:18:43;20.90;99.90
7512;DHT22;9999;48.780;9.146;2022-08-25T01:21:12;20.90;99.90
7512;DHT22;9999;48.780;9.146;2022-08-25T01:23:38;20.90;99.90
7512;DHT22;9999;48.780;9.146;2022-08-25T01:26:08;20.90;99.90
7512;DHT22;9999;48.780;9.146;2022-08-25T01:28:36;20.90;99.90
7512;DHT22;9999;48.780;9.146;2022-08-25T01:31:23;20.90;99.90
7512;DHT22;9999;48.780;9.146;2022-08-25T01:33:50;20.90;99.90
7512;DHT22;9999;48.780;9.146;2022-08-25T01:36:19;20.80;99.90
7512;DHT22;9999;48.780;9.146;2022-08-25T01:38:46;20.80;99.90
7512;DHT22;9999;48.780;9.146;2022-08-25T01:41:16;20.80;99.90
7512;DHT22;9999;48.780;9.146;2022-08-25T01:43:43;20.80;99.90
7512;DHT22;9999;48.780;9.146;2022-08-25T01:46:10;20.80;99.90
7512;DHT22;9999;48.780;9.146;2022-08-25T01:48:37;20.80;99.90
7512;DHT22;9999;48.780;9.146;2022-08-25T01:51:04;20.80;99.90
7512;DHT22;9999;48.780;9.146;2022-08-25T01:53:32;20.80;99.90
7512;DHT22;9999;48.780;9.146;2022-08-25T01:56:06;20.70;99.90
7512;DHT22;9999;48.780;9.146;2022-08-25T01:58:35;20.70;99.90
7512;DHT22;9999;48.780;9.146;2022-08-25T02:01:06;20.70;99.90
7512;DHT22;9999;48.780;9.146;2022-08-25T02:03:36;20.70;99.90
7512;DHT22;9999;48.780;9.146;2022-08-25T02:06:05;20.70;99.90
7512;DHT22;9999;48.780;9.146;2022-08-25T02:08:33;20.70;99.90
7512;DHT22;9999;48.780;9.146;2022-08-25T02:11:01;20.60;99.90
7512;DHT22;9999;48.780;9.146;2022-08-25T02:13:28;20.60;99.90
7512;DHT22;9999;48.780;9.146;2022-08-25T02:15:57;20.60;99.90
7512;DHT22;9999;48.780;9.146;2022-08-25T02:18:24;20.50;99.90
7512;DHT22;9999;48.780;9.146;2022-08-25T02:20:51;20.50;99.90
7512;DHT22;9999;48.780;9.146;2022-08-25T02:23:18;20.50;99.90
7512;DHT22;9999;48.780;9.146;2022-08-25T02:25:47;20.40;99.90
7512;DHT22;9999;48.780;9.146;2022-08-25T02:28:13;20.30;99.90
7512;DHT22;9999;48.780;9.146;2022-08-25T02:30:41;20.20;99.90
7512;DHT22;9999;48.780;9.146;2022-08-25T02:33:09;20.10;99.90
7512;DHT22;9999;48.780;9.146;2022-08-25T02:35:36;20.00;99.90
7512;DHT22;9999;48.780;9.146;2022-08-25T02:38:04;20.00;99.90
7512;DHT22;9999;48.780;9.146;2022-08-25T02:40:30;20.00;99.90
7512;DHT22;9999;48.780;9.146;2022-08-25T02:42:59;19.90;99.90
7512;DHT22;9999;48.780;9.146;2022-08-25T02:45:25;19.90;99.90
7512;DHT22;9999;48.780;9.146;2022-08-25T02:47:52;19.90;99.90
7512;DHT22;9999;48.780;9.146;2022-08-25T02:50:19;19.80;99.90
7512;DHT22;9999;48.780;9.146;2022-08-25T02:52:46;19.80;99.90
7512;DHT22;9999;48.780;9.146;2022-08-25T02:55:15;19.70;99.90
7512;DHT22;9999;48.780;9.146;2022-08-25T02:57:42;19.80;99.90
7512;DHT22;9999;48.780;9.146;2022-08-25T03:00:12;19.70;99.90
7512;DHT22;9999;48.780;9.146;2022-08-25T03:02:40;19.70;99.90
7512;DHT22;9999;48.780;9.146;2022-08-25T03:05:08;19.80;99.90
7512;DHT22;9999;48.780;9.146;2022-08-25T03:07:35;19.80;99.90
7512;DHT22;9999;48.780;9.146;2022-08-25T03:10:05;19.80;99.90
7512;DHT22;9999;48.780;9.146;2022-08-25T03:12:32;19.80;99.90
7512;DHT22;9999;48.780;9.146;2022-08-25T03:14:59;19.80;99.90
7512;DHT22;9999;48.780;9.146;2022-08-25T03:17:28;19.80;99.90
7512;DHT22;9999;48.780;9.146;2022-08-25T03:19:56;19.90;99.90
7512;DHT22;9999;48.780;9.146;2022-08-25T03:22:22;19.80;99.90
7512;DHT22;9999;48.780;9.146;2022-08-25T03:24:49;19.70;99.90
7512;DHT22;9999;48.780;9.146;2022-08-25T03:27:16;19.60;99.90
7512;DHT22;9999;48.780;9.146;2022-08-25T03:29:42;19.60;99.90
7512;DHT22;9999;48.780;9.146;2022-08-25T03:32:09;19.60;99.90
7512;DHT22;9999;48.780;9.146;2022-08-25T03:34:37;19.60;99.90
7512;DHT22;9999;48.780;9.146;2022-08-25T03:37:04;19.60;99.90
7512;DHT22;9999;48.780;9.146;2022-08-25T03:39:33;19.70;99.90
7512;DHT22;9999;48.780;9.146;2022-08-25T03:42:01;19.70;99.90
7512;DHT22;9999;48.780;9.146;2022-08-25T03:44:28;19.70;99.90
7512;DHT22;9999;48.780;9.146;2022-08-25T03:46:55;19.70;99.90
7512;DHT22;9999;48.780;9.146;2022-08-25T03:49:23;19.60;99.90
7512;DHT22;9999;48.780;9.146;2022-08-25T03:51:52;19.60;99.90
7512;DHT22;9999;48.780;9.146;2022-08-25T03:54:21;19.60;99.90
7512;DHT22;9999;48.780;9.146;2022-08-25T03:56:48;19.50;99.90
7512;DHT22;9999;48.780;9.146;2022-08-25T03:59:15;19.50;99.90
7512;DHT22;9999;48.780;9.146;2022-08-25T04:01:43;19.50;99.90
7512;DHT22;9999;48.780;9.146;2022-08-25T04:04:13;19.50;99.90
7512;DHT22;9999;48.780;9.146;2022-08-25T04:06:40;19.60;99.90
7512;DHT22;9999;48.780;9.146;2022-08-25T04:09:10;19.50;99.90
7512;DHT22;9999;48.780;9.146;2022-08-25T04:11:38;19.60;99.90
7512;DHT22;9999;48.780;9.146;2022-08-25T04:14:05;19.50;99.90
7512;DHT22;9999;48.780;9.146;2022-08-25T04:16:33;19.50;99.90
7512;DHT22;9999;48.780;9.146;2022-08-25T04:19:04;19.50;99.90
7512;DHT22;9999;48.780;9.146;2022-08-25T04:21:32;19.50;99.90
7512;DHT22;9999;48.780;9.146;2022-08-25T04:23:59;19.50;99.90
7512;DHT22;9999;48.780;9.146;2022-08-25T04:26:31;19.50;99.90
7512;DHT22;9999;48.780;9.146;2022-08-25T04:28:59;19.40;99.90
7512;DHT22;9999;48.780;9.146;2022-08-25T04:31:27;19.40;99.90
7512;DHT22;9999;48.780;9.146;2022-08-25T04:33:54;19.40;99.90
7512;DHT22;9999;48.780;9.146;2022-08-25T04:36:22;19.30;99.90
7512;DHT22;9999;48.780;9.146;2022-08-25T04:38:49;19.30;99.90
7512;DHT22;9999;48.780;9.146;2022-08-25T04:41:18;19.30;99.90
7512;DHT22;9999;48.780;9.146;2022-08-25T04:43:47;19.30;99.90
7512;DHT22;9999;48.780;9.146;2022-08-25T04:46:16;19.30;99.90
7512;DHT22;9999;48.780;9.146;2022-08-25T04:48:43;19.30;99.90
7512;DHT22;9999;48.780;9.146;2022-08-25T04:51:12;19.20;99.90
7512;DHT22;9999;48.780;9.146;2022-08-25T04:53:40;19.20;99.90
7512;DHT22;9999;48.780;9.146;2022-08-25T04:56:09;19.20;99.90
7512;DHT22;9999;48.780;9.146;2022-08-25T04:58:36;19.20;99.90
7512;DHT22;9999;48.780;9.146;2022-08-25T05:01:06;19.20;99.90
7512;DHT22;9999;48.780;9.146;2022-08-25T05:03:34;19.20;99.90
7512;DHT22;9999;48.780;9.146;2022-08-25T05:06:02;19.10;99.90
7512;DHT22;9999;48.780;9.146;2022-08-25T05:08:31;19.20;99.90
7512;DHT22;9999;48.780;9.146;2022-08-25T05:10:58;19.20;99.90
7512;DHT22;9999;48.780;9.146;2022-08-25T05:13:25;19.10;99.90
7512;DHT22;9999;48.780;9.146;2022-08-25T05:15:53;19.10;99.90
7512;DHT22;9999;48.780;9.146;2022-08-25T05:18:22;19.10;99.90
7512;DHT22;9999;48.780;9.146;2022-08-25T05:20:50;19.10;99.90
7512;DHT22;9999;48.780;9.146;2022-08-25T05:23:18;19.10;99.90
7512;DHT22;9999;48.780;9.146;2022-08-25T05:25:45;19.10;99.90
7512;DHT22;9999;48.780;9.146;2022-08-25T05:28:12;19.10;99.90
7512;DHT22;9999;48.780;9.146;2022-08-25T05:30:40;19.10;99.90
7512;DHT22;9999;48.780;9.146;2022-08-25T05:33:08;19.20;99.90
7512;DHT22;9999;48.780;9.146;2022-08-25T05:35:37;19.10;99.90
7512;DHT22;9999;48.780;9.146;2022-08-25T05:38:05;19.00;99.90
7512;DHT22;9999;48.780;9.146;2022-08-25T05:40:31;19.10;99.90
7512;DHT22;9999;48.780;9.146;2022-08-25T05:42:58;19.10;99.90
7512;DHT22;9999;48.780;9.146;2022-08-25T05:45:25;19.10;99.90
7512;DHT22;9999;48.780;9.146;2022-08-25T05:47:52;19.10;99.90
7512;DHT22;9999;48.780;9.146;2022-08-25T05:50:19;19.10;99.90
7512;DHT22;9999;48.780;9.146;2022-08-25T05:52:47;19.10;99.90
7512;DHT22;9999;48.780;9.146;2022-08-25T05:55:14;19.10;99.90
7512;DHT22;9999;48.780;9.146;2022-08-25T05:57:41;19.10;99.90
7512;DHT22;9999;48.780;9.146;2022-08-25T06:00:10;19.10;99.90
7512;DHT22;9999;48.780;9.146;2022-08-25T06:02:37;19.10;99.90
7512;DHT22;9999;48.780;9.146;2022-08-25T06:05:08;19.10;99.90
7512;DHT22;9999;48.780;9.146;2022-08-25T06:07:36;19.10;99.90
7512;DHT22;9999;48.780;9.146;2022-08-25T06:10:05;19.20;99.90
7512;DHT22;9999;48.780;9.146;2022-08-25T06:12:36;19.20;99.90
7512;DHT22;9999;48.780;9.146;2022-08-25T06:15:04;19.30;99.90
7512;DHT22;9999;48.780;9.146;2022-08-25T06:17:31;19.40;99.90
7512;DHT22;9999;48.780;9.146;2022-08-25T06:19:59;19.40;99.90
7512;DHT22;9999;48.780;9.146;2022-08-25T06:22:26;19.50;99.90
7512;DHT22;9999;48.780;9.146;2022-08-25T06:24:53;19.50;99.90
7512;DHT22;9999;48.780;9.146;2022-08-25T06:27:21;19.60;99.90
7512;DHT22;9999;48.780;9.146;2022-08-25T06:29:48;19.60;99.90
7512;DHT22;9999;48.780;9.146;2022-08-25T06:32:15;19.70;99.90
7512;DHT22;9999;48.780;9.146;2022-08-25T06:34:42;19.80;99.90
7512;DHT22;9999;48.780;9.146;2022-08-25T06:37:08;20.00;99.90
7512;DHT22;9999;48.780;9.146;2022-08-25T06:39:35;20.10;99.90
7512;DHT22;9999;48.780;9.146;2022-08-25T06:42:02;20.20;99.90
7512;DHT22;9999;48.780;9.146;2022-08-25T06:44:30;20.50;99.90
7512;DHT22;9999;48.780;9.146;2022-08-25T06:46:57;20.80;99.90
7512;DHT22;9999;48.780;9.146;2022-08-25T06:49:24;21.10;99.90
7512;DHT22;9999;48.780;9.146;2022-08-25T06:51:53;21.10;99.90
7512;DHT22;9999;48.780;9.146;2022-08-25T06:54:19;21.50;99.90
7512;DHT22;9999;48.780;9.146;2022-08-25T06:56:46;21.80;99.90
7512;DHT22;9999;48.780;9.146;2022-08-25T06:59:13;22.00;99.90
7512;DHT22;9999;48.780;9.146;2022-08-25T07:01:43;22.40;99.90
7512;DHT22;9999;48.780;9.146;2022-08-25T07:04:10;22.60;99.90
7512;DHT22;9999;48.780;9.146;2022-08-25T07:06:36;23.00;99.90
7512;DHT22;9999;48.780;9.146;2022-08-25T07:09:05;23.50;99.90
7512;DHT22;9999;48.780;9.146;2022-08-25T07:11:32;24.00;99.90
7512;DHT22;9999;48.780;9.146;2022-08-25T07:14:00;24.30;99.90
7512;DHT22;9999;48.780;9.146;2022-08-25T07:16:28;24.50;99.90
7512;DHT22;9999;48.780;9.146;2022-08-25T07:18:58;24.70;99.90
7512;DHT22;9999;48.780;9.146;2022-08-25T07:21:26;24.70;99.90
7512;DHT22;9999;48.780;9.146;2022-08-25T07:23:54;24.90;99.90
7512;DHT22;9999;48.780;9.146;2022-08-25T07:26:25;25.20;99.90
7512;DHT22;9999;48.780;9.146;2022-08-25T07:28:53;24.90;99.90
7512;DHT22;9999;48.780;9.146;2022-08-25T07:31:19;25.10;99.90
7512;DHT22;9999;48.780;9.146;2022-08-25T07:33:46;25.30;99.90
7512;DHT22;9999;48.780;9.146;2022-08-25T07:36:29;25.20;99.90
7512;DHT22;9999;48.780;9.146;2022-08-25T07:38:56;25.20;99.90
7512;DHT22;9999;48.780;9.146;2022-08-25T07:41:23;25.50;99.90
7512;DHT22;9999;48.780;9.146;2022-08-25T07:43:50;25.70;99.90
7512;DHT22;9999;48.780;9.146;2022-08-25T07:46:17;25.90;99.90
7512;DHT22;9999;48.780;9.146;2022-08-25T07:48:43;26.20;99.90
7512;DHT22;9999;48.780;9.146;2022-08-25T07:51:12;26.40;99.90
7512;DHT22;9999;48.780;9.146;2022-08-25T07:53:41;26.30;99.90
7512;DHT22;9999;48.780;9.146;2022-08-25T07:56:09;26.20;99.90
7512;DHT22;9999;48.780;9.146;2022-08-25T07:58:36;26.00;99.90
7512;DHT22;9999;48.780;9.146;2022-08-25T08:01:03;25.90;99.90
7512;DHT22;9999;48.780;9.146;2022-08-25T08:03:30;26.30;99.90
7512;DHT22;9999;48.780;9.146;2022-08-25T08:05:58;26.70;99.90
7512;DHT22;9999;48.780;9.146;2022-08-25T08:08:25;26.90;99.90
7512;DHT22;9999;48.780;9.146;2022-08-25T08:10:54;26.80;99.90
7512;DHT22;9999;48.780;9.146;2022-08-25T08:13:21;26.20;99.90
7512;DHT22;9999;48.780;9.146;2022-08-25T08:15:50;26.50;99.90
7512;DHT22;9999;48.780;9.146;2022-08-25T08:18:17;26.50;99.90
7512;DHT22;9999;48.780;9.146;2022-08-25T08:20:45;26.30;99.90
7512;DHT22;9999;48.780;9.146;2022-08-25T08:23:12;26.40;99.90
7512;DHT22;9999;48.780;9.146;2022-08-25T08:25:39;26.50;99.90
7512;DHT22;9999;48.780;9.146;2022-08-25T08:28:07;26.80;99.90
7512;DHT22;9999;48.780;9.146;2022-08-25T08:30:34;26.80;99.90
7512;DHT22;9999;48.780;9.146;2022-08-25T08:33:02;26.80;99.90
7512;DHT22;9999;48.780;9.146;2022-08-25T08:35:29;26.40;99.90
7512;DHT22;9999;48.780;9.146;2022-08-25T08:37:56;26.40;99.90
7512;DHT22;9999;48.780;9.146;2022-08-25T08:40:23;26.30;99.90
7512;DHT22;9999;48.780;9.146;2022-08-25T08:42:58;26.00;99.90
7512;DHT22;9999;48.780;9.146;2022-08-25T08:45:32;26.00;99.90
7512;DHT22;9999;48.780;9.146;2022-08-25T08:48:14;26.10;99.90
7512;DHT22;9999;48.780;9.146;2022-08-25T08:50:51;26.40;99.90
7512;DHT22;9999;48.780;9.146;2022-08-25T08:53:24;26.40;99.90
7512;DHT22;9999;48.780;9.146;2022-08-25T08:55:55;26.60;99.90
7512;DHT22;9999;48.780;9.146;2022-08-25T08:58:26;26.70;99.90
7512;DHT22;9999;48.780;9.146;2022-08-25T09:00:57;26.80;99.90
7512;DHT22;9999;48.780;9.146;2022-08-25T09:03:32;26.90;99.90
7512;DHT22;9999;48.780;9.146;2022-08-25T09:06:04;26.80;99.90
7512;DHT22;9999;48.780;9.146;2022-08-25T09:08:32;26.50;99.90
7512;DHT22;9999;48.780;9.146;2022-08-25T09:11:03;26.80;99.90
7512;DHT22;9999;48.780;9.146;2022-08-25T09:13:44;26.90;99.90
7512;DHT22;9999;48.780;9.146;2022-08-25T09:16:24;27.00;99.90
7512;DHT22;9999;48.780;9.146;2022-08-25T09:19:23;27.10;99.90
7512;DHT22;9999;48.780;9.146;2022-08-25T09:22:00;27.10;99.90
7512;DHT22;9999;48.780;9.146;2022-08-25T09:24:42;26.70;99.90
7512;DHT22;9999;48.780;9.146;2022-08-25T09:27:20;26.60;99.90
7512;DHT22;9999;48.780;9.146;2022-08-25T09:29:57;27.00;99.90
7512;DHT22;9999;48.780;9.146;2022-08-25T09:32:27;27.40;99.90
7512;DHT22;9999;48.780;9.146;2022-08-25T09:34:55;27.40;99.90
7512;DHT22;9999;48.780;9.146;2022-08-25T09:37:22;27.50;99.90
7512;DHT22;9999;48.780;9.146;2022-08-25T09:39:49;27.70;99.90
7512;DHT22;9999;48.780;9.146;2022-08-25T09:42:18;27.80;99.90
7512;DHT22;9999;48.780;9.146;2022-08-25T09:44:46;27.90;99.90
7512;DHT22;9999;48.780;9.146;2022-08-25T09:47:20;27.90;99.90
7512;DHT22;9999;48.780;9.146;2022-08-25T09:49:50;27.90;99.90
7512;DHT22;9999;48.780;9.146;2022-08-25T09:52:39;27.90;99.90
7512;DHT22;9999;48.780;9.146;2022-08-25T09:55:26;28.00;99.90
7512;DHT22;9999;48.780;9.146;2022-08-25T09:57:55;28.20;99.90
7512;DHT22;9999;48.780;9.146;2022-08-25T10:00:25;28.20;99.90
7512;DHT22;9999;48.780;9.146;2022-08-25T10:03:06;28.40;99.90
7512;DHT22;9999;48.780;9.146;2022-08-25T10:05:40;28.50;99.90
7512;DHT22;9999;48.780;9.146;2022-08-25T10:08:24;28.60;99.90
7512;DHT22;9999;48.780;9.146;2022-08-25T10:10:53;28.60;99.90
7512;DHT22;9999;48.780;9.146;2022-08-25T10:13:32;28.60;99.90
7512;DHT22;9999;48.780;9.146;2022-08-25T10:16:03;28.90;99.90
7512;DHT22;9999;48.780;9.146;2022-08-25T10:18:31;29.20;99.20
7512;DHT22;9999;48.780;9.146;2022-08-25T10:21:05;29.30;99.90
7512;DHT22;9999;48.780;9.146;2022-08-25T10:23:33;29.70;99.00
7512;DHT22;9999;48.780;9.146;2022-08-25T10:26:04;29.20;97.40
7512;DHT22;9999;48.780;9.146;2022-08-25T10:28:39;29.10;97.70
7512;DHT22;9999;48.780;9.146;2022-08-25T10:31:15;29.10;97.50
7512;DHT22;9999;48.780;9.146;2022-08-25T10:33:54;29.30;98.10
7512;DHT22;9999;48.780;9.146;2022-08-25T10:36:31;29.40;94.50
7512;DHT22;9999;48.780;9.146;2022-08-25T10:39:02;29.70;95.10
7512;DHT22;9999;48.780;9.146;2022-08-25T10:41:42;29.90;94.00
7512;DHT22;9999;48.780;9.146;2022-08-25T10:44:20;29.70;93.40
7512;DHT22;9999;48.780;9.146;2022-08-25T10:47:33;29.70;94.60
7512;DHT22;9999;48.780;9.146;2022-08-25T10:50:13;29.60;93.80
7512;DHT22;9999;48.780;9.146;2022-08-25T10:52:56;29.80;92.40
7512;DHT22;9999;48.780;9.146;2022-08-25T10:55:31;30.10;91.90
7512;DHT22;9999;48.780;9.146;2022-08-25T10:58:08;30.10;91.90
7512;DHT22;9999;48.780;9.146;2022-08-25T11:00:43;30.20;92.40
7512;DHT22;9999;48.780;9.146;2022-08-25T11:03:32;30.10;90.90
7512;DHT22;9999;48.780;9.146;2022-08-25T11:06:05;30.00;90.80
7512;DHT22;9999;48.780;9.146;2022-08-25T11:08:36;30.00;91.10
7512;DHT22;9999;48.780;9.146;2022-08-25T11:11:09;30.20;90.70
7512;DHT22;9999;48.780;9.146;2022-08-25T11:13:42;30.30;90.40
7512;DHT22;9999;48.780;9.146;2022-08-25T11:16:14;30.30;88.40
7512;DHT22;9999;48.780;9.146;2022-08-25T11:18:47;30.50;89.30
7512;DHT22;9999;48.780;9.146;2022-08-25T11:21:18;30.50;87.50
7512;DHT22;9999;48.780;9.146;2022-08-25T11:23:52;30.40;89.30
7512;DHT22;9999;48.780;9.146;2022-08-25T11:26:25;30.50;88.20
7512;DHT22;9999;48.780;9.146;2022-08-25T11:29:02;30.70;84.80
7512;DHT22;9999;48.780;9.146;2022-08-25T11:31:30;30.80;82.80
7512;DHT22;9999;48.780;9.146;2022-08-25T11:34:02;30.90;84.30
7512;DHT22;9999;48.780;9.146;2022-08-25T11:36:32;31.00;83.10
7512;DHT22;9999;48.780;9.146;2022-08-25T11:39:14;30.90;83.80
7512;DHT22;9999;48.780;9.146;2022-08-25T11:41:51;30.80;80.90
7512;DHT22;9999;48.780;9.146;2022-08-25T11:44:37;31.10;80.50
7512;DHT22;9999;48.780;9.146;2022-08-25T11:47:34;31.30;78.70
7512;DHT22;9999;48.780;9.146;2022-08-25T11:50:06;30.80;79.40
7512;DHT22;9999;48.780;9.146;2022-08-25T11:52:50;31.20;82.00
7512;DHT22;9999;48.780;9.146;2022-08-25T11:55:25;31.40;82.10
7512;DHT22;9999;48.780;9.146;2022-08-25T12:01:00;31.20;79.50
7512;DHT22;9999;48.780;9.146;2022-08-25T12:03:48;31.30;76.90
7512;DHT22;9999;48.780;9.146;2022-08-25T12:06:25;31.20;75.10
7512;DHT22;9999;48.780;9.146;2022-08-25T12:11:49;31.10;76.10
7512;DHT22;9999;48.780;9.146;2022-08-25T12:14:37;31.40;74.50
7512;DHT22;9999;48.780;9.146;2022-08-25T12:17:17;31.60;73.30
7512;DHT22;9999;48.780;9.146;2022-08-25T12:19:54;31.50;72.10
7512;DHT22;9999;48.780;9.146;2022-08-25T12:22:43;31.30;74.90
7512;DHT22;9999;48.780;9.146;2022-08-25T12:25:47;30.90;73.50
7512;DHT22;9999;48.780;9.146;2022-08-25T12:31:30;30.40;73.60
7512;DHT22;9999;48.780;9.146;2022-08-25T12:34:13;30.70;72.50
7512;DHT22;9999;48.780;9.146;2022-08-25T12:36:54;30.80;71.60
7512;DHT22;9999;48.780;9.146;2022-08-25T12:39:27;30.90;71.50
7512;DHT22;9999;48.780;9.146;2022-08-25T12:41:57;30.80;73.60
7512;DHT22;9999;48.780;9.146;2022-08-25T12:44:41;31.10;71.60
7512;DHT22;9999;48.780;9.146;2022-08-25T12:47:28;31.40;70.40
7512;DHT22;9999;48.780;9.146;2022-08-25T12:50:29;31.60;69.30
7512;DHT22;9999;48.780;9.146;2022-08-25T12:53:08;31.50;70.50
7512;DHT22;9999;48.780;9.146;2022-08-25T12:55:37;31.60;72.60
7512;DHT22;9999;48.780;9.146;2022-08-25T12:58:05;31.80;70.50
7512;DHT22;9999;48.780;9.146;2022-08-25T13:00:44;31.80;68.90
7512;DHT22;9999;48.780;9.146;2022-08-25T13:03:31;31.70;69.20
7512;DHT22;9999;48.780;9.146;2022-08-25T13:06:17;31.40;67.90
7512;DHT22;9999;48.780;9.146;2022-08-25T13:09:06;31.30;69.30
7512;DHT22;9999;48.780;9.146;2022-08-25T13:11:40;31.30;68.50
7512;DHT22;9999;48.780;9.146;2022-08-25T13:14:16;31.30;67.90
7512;DHT22;9999;48.780;9.146;2022-08-25T13:16:52;31.20;66.70
7512;DHT22;9999;48.780;9.146;2022-08-25T13:19:20;31.40;65.00
7512;DHT22;9999;48.780;9.146;2022-08-25T13:21:48;31.50;67.10
7512;DHT22;9999;48.780;9.146;2022-08-25T13:24:20;31.50;66.50
7512;DHT22;9999;48.780;9.146;2022-08-25T13:26:53;31.50;67.10
7512;DHT22;9999;48.780;9.146;2022-08-25T13:29:21;31.50;67.20
7512;DHT22;9999;48.780;9.146;2022-08-25T13:31:51;31.50;67.20
7512;DHT22;9999;48.780;9.146;2022-08-25T13:34:22;31.50;66.20
7512;DHT22;9999;48.780;9.146;2022-08-25T13:36:50;31.20;67.60
7512;DHT22;9999;48.780;9.146;2022-08-25T13:39:36;31.30;67.80
7512;DHT22;9999;48.780;9.146;2022-08-25T13:42:04;30.80;69.20
7512;DHT22;9999;48.780;9.146;2022-08-25T13:44:35;30.50;68.50
7512;DHT22;9999;48.780;9.146;2022-08-25T13:47:08;30.50;69.10
7512;DHT22;9999;48.780;9.146;2022-08-25T13:49:38;30.30;69.60
7512;DHT22;9999;48.780;9.146;2022-08-25T13:52:06;29.90;69.70
7512;DHT22;9999;48.780;9.146;2022-08-25T13:54:36;29.50;69.10
7512;DHT22;9999;48.780;9.146;2022-08-25T13:57:13;29.40;68.80
7512;DHT22;9999;48.780;9.146;2022-08-25T13:59:42;29.50;69.70
7512;DHT22;9999;48.780;9.146;2022-08-25T14:02:12;29.70;70.10
7512;DHT22;9999;48.780;9.146;2022-08-25T14:04:47;29.80;70.30
7512;DHT22;9999;48.780;9.146;2022-08-25T14:07:26;30.00;67.90
7512;DHT22;9999;48.780;9.146;2022-08-25T14:09:55;30.10;70.10
7512;DHT22;9999;48.780;9.146;2022-08-25T14:12:31;29.90;69.40
7512;DHT22;9999;48.780;9.146;2022-08-25T14:15:01;29.70;70.60
7512;DHT22;9999;48.780;9.146;2022-08-25T14:17:29;29.50;69.00
7512;DHT22;9999;48.780;9.146;2022-08-25T14:19:58;29.40;72.00
7512;DHT22;9999;48.780;9.146;2022-08-25T14:22:26;29.50;72.20
7512;DHT22;9999;48.780;9.146;2022-08-25T14:24:53;29.20;70.80
7512;DHT22;9999;48.780;9.146;2022-08-25T14:27:20;29.10;73.20
7512;DHT22;9999;48.780;9.146;2022-08-25T14:29:47;29.00;71.70
7512;DHT22;9999;48.780;9.146;2022-08-25T14:32:15;29.00;73.50
7512;DHT22;9999;48.780;9.146;2022-08-25T14:34:43;29.00;73.10
7512;DHT22;9999;48.780;9.146;2022-08-25T14:37:13;29.00;74.70
7512;DHT22;9999;48.780;9.146;2022-08-25T14:39:41;29.10;71.00
7512;DHT22;9999;48.780;9.146;2022-08-25T14:42:08;29.40;69.90
7512;DHT22;9999;48.780;9.146;2022-08-25T14:44:36;29.60;70.60
7512;DHT22;9999;48.780;9.146;2022-08-25T14:47:05;29.90;71.10
7512;DHT22;9999;48.780;9.146;2022-08-25T14:49:35;30.20;70.90
7512;DHT22;9999;48.780;9.146;2022-08-25T14:52:07;30.10;69.90
7512;DHT22;9999;48.780;9.146;2022-08-25T14:54:35;30.00;71.30
7512;DHT22;9999;48.780;9.146;2022-08-25T14:57:02;30.20;72.10
7512;DHT22;9999;48.780;9.146;2022-08-25T14:59:29;30.30;70.00
7512;DHT22;9999;48.780;9.146;2022-08-25T15:01:57;30.30;69.20
7512;DHT22;9999;48.780;9.146;2022-08-25T15:04:26;30.50;70.80
7512;DHT22;9999;48.780;9.146;2022-08-25T15:06:56;30.40;70.30
7512;DHT22;9999;48.780;9.146;2022-08-25T15:09:23;30.50;69.90
7512;DHT22;9999;48.780;9.146;2022-08-25T15:11:53;30.50;69.50
7512;DHT22;9999;48.780;9.146;2022-08-25T15:14:22;30.50;69.90
7512;DHT22;9999;48.780;9.146;2022-08-25T15:16:51;30.50;68.80
7512;DHT22;9999;48.780;9.146;2022-08-25T15:19:21;30.50;68.70
7512;DHT22;9999;48.780;9.146;2022-08-25T15:21:48;30.20;69.20
7512;DHT22;9999;48.780;9.146;2022-08-25T15:24:16;30.00;70.10
7512;DHT22;9999;48.780;9.146;2022-08-25T15:26:46;29.90;68.80
7512;DHT22;9999;48.780;9.146;2022-08-25T15:29:16;29.80;68.20
7512;DHT22;9999;48.780;9.146;2022-08-25T15:31:44;29.70;70.30
7512;DHT22;9999;48.780;9.146;2022-08-25T15:34:10;29.50;70.50
7512;DHT22;9999;48.780;9.146;2022-08-25T15:36:38;29.20;71.20
7512;DHT22;9999;48.780;9.146;2022-08-25T15:39:05;29.10;71.40
7512;DHT22;9999;48.780;9.146;2022-08-25T15:41:32;29.00;72.10
7512;DHT22;9999;48.780;9.146;2022-08-25T15:43:59;28.90;72.70
7512;DHT22;9999;48.780;9.146;2022-08-25T15:46:28;28.90;73.10
7512;DHT22;9999;48.780;9.146;2022-08-25T15:48:55;28.80;74.10
7512;DHT22;9999;48.780;9.146;2022-08-25T15:51:24;28.70;74.90
7512;DHT22;9999;48.780;9.146;2022-08-25T15:53:51;28.60;75.20
7512;DHT22;9999;48.780;9.146;2022-08-25T15:56:18;28.60;74.90
7512;DHT22;9999;48.780;9.146;2022-08-25T15:58:46;28.80;76.50
7512;DHT22;9999;48.780;9.146;2022-08-25T16:01:15;28.80;74.20
7512;DHT22;9999;48.780;9.146;2022-08-25T16:03:43;28.80;74.70
7512;DHT22;9999;48.780;9.146;2022-08-25T16:06:10;28.70;74.20
7512;DHT22;9999;48.780;9.146;2022-08-25T16:08:37;28.60;74.40
7512;DHT22;9999;48.780;9.146;2022-08-25T16:11:05;28.50;74.20
7512;DHT22;9999;48.780;9.146;2022-08-25T16:13:32;28.50;75.10
7512;DHT22;9999;48.780;9.146;2022-08-25T16:15:59;28.50;74.70
7512;DHT22;9999;48.780;9.146;2022-08-25T16:18:26;28.70;74.30
7512;DHT22;9999;48.780;9.146;2022-08-25T16:20:54;28.80;74.60
7512;DHT22;9999;48.780;9.146;2022-08-25T16:23:21;28.80;73.70
7512;DHT22;9999;48.780;9.146;2022-08-25T16:25:48;28.80;74.00
7512;DHT22;9999;48.780;9.146;2022-08-25T16:28:16;28.90;72.40
7512;DHT22;9999;48.780;9.146;2022-08-25T16:30:47;28.70;73.60
7512;DHT22;9999;48.780;9.146;2022-08-25T16:33:15;28.80;74.30